Time;durP1;ratioP1;P1;durP2;ratioP2;P2;SDS_P1;SDS_P2;PMS_P1;PMS_P2;Temp;Humidity;BMP_temperature;BMP_pressure;BME280_temperature;BME280_humidity;BME280_pressure;Samples;Min_cycle;Max_cycle;Signal;HPM_P1;HPM_P2
2021/07/25 00:03:04;;;;;;;1999.90;999.90;;;;;;;24.79;47.51;100494.69;15786677;28;20122;-64
2021/07/25 00:10:39;;;;;;;1999.90;999.90;;;;;;;24.83;47.44;100481.19;15804311;28;20044;-63
2021/07/25 00:18:12;;;;;;;1999.90;999.90;;;;;;;24.72;47.26;100487.09;15802784;28;20044;-66
2021/07/25 00:25:46;;;;;;;;;;;;;;;24.56;47.70;100478.41;15751258;28;20097;-66
2021/07/25 00:33:18;;;;;;;1999.90;999.90;;;;;;;24.33;48.30;100462.13;15739654;28;19920;-64
2021/07/25 00:40:56;;;;;;;1999.90;999.90;;;;;;;24.31;48.09;100456.84;15748459;28;20047;-65
2021/07/25 00:48:29;;;;;;;1999.90;999.90;;;;;;;24.01;49.04;100454.88;15752451;28;20051;-65
2021/07/25 00:56:04;;;;;;;1999.90;999.90;;;;;;;24.00;50.08;100446.75;15733938;28;20052;-66
2021/07/25 01:03:46;;;;;;;1999.90;999.90;;;;;;;24.02;48.81;100441.44;15716966;28;20040;-65
2021/07/25 01:11:20;;;;;;;1999.90;999.90;;;;;;;23.86;49.35;100442.91;15733331;28;20477;-65
2021/07/25 01:18:52;;;;;;;1999.90;999.90;;;;;;;23.69;49.79;100443.97;15750634;28;20098;-65
2021/07/25 01:26:28;;;;;;;1999.90;999.90;;;;;;;23.60;49.70;100443.69;15790184;28;20044;-64
2021/07/25 01:34:01;;;;;;;1999.90;999.90;;;;;;;23.45;49.66;100437.38;15794224;28;20135;-65
2021/07/25 01:41:42;;;;;;;1999.90;999.90;;;;;;;23.51;49.53;100438.50;15812029;28;20454;-65
2021/07/25 01:49:15;;;;;;;1999.90;999.90;;;;;;;23.53;49.65;100436.03;15792243;28;20365;-65
2021/07/25 01:56:48;;;;;;;1999.90;999.90;;;;;;;23.29;50.11;100437.97;15793830;28;20052;-65
2021/07/25 02:04:20;;;;;;;1999.90;999.90;;;;;;;23.12;50.94;100441.06;15776246;28;20067;-65
2021/07/25 02:11:54;;;;;;;1999.90;999.90;;;;;;;22.89;51.68;100434.00;15792210;28;20036;-65
2021/07/25 02:19:26;;;;;;;1999.90;999.90;;;;;;;22.71;52.14;100439.84;15792267;28;20044;-65
2021/07/25 02:27:00;;;;;;;1999.90;999.90;;;;;;;22.64;53.29;100437.09;15747022;28;20393;-64
2021/07/25 02:34:32;;;;;;;1999.90;999.90;;;;;;;22.77;53.64;100454.44;15746374;28;20046;-64
2021/07/25 02:42:06;;;;;;;1999.90;999.90;;;;;;;22.84;53.89;100448.72;15746710;28;20493;-64
2021/07/25 02:49:38;;;;;;;1999.90;999.90;;;;;;;22.45;54.91;100441.34;15745927;28;20058;-65
2021/07/25 02:57:11;;;;;;;1999.90;999.90;;;;;;;22.38;54.88;100441.41;15727354;28;20049;-64
2021/07/25 03:04:46;;;;;;;1999.90;999.90;;;;;;;22.38;56.01;100435.72;15726574;28;20075;-65
2021/07/25 03:12:20;;;;;;;1999.90;999.90;;;;;;;22.00;55.97;100431.19;15726222;28;20052;-65
2021/07/25 03:19:52;;;;;;;1999.90;999.90;;;;;;;22.06;55.35;100441.69;15708471;28;20525;-65
2021/07/25 03:27:25;;;;;;;1999.90;999.90;;;;;;;21.84;55.37;100437.38;15781072;28;20121;-65
2021/07/25 03:34:58;;;;;;;1999.90;999.90;;;;;;;;;;15805046;28;20440;-65
2021/07/25 03:42:32;;;;;;;1999.90;999.90;;;;;;;21.99;55.10;100435.22;15786835;28;20094;-65
2021/07/25 03:50:05;;;;;;;1999.90;999.90;;;;;;;22.02;56.13;100445.78;15804074;28;20501;-65
2021/07/25 03:57:39;;;;;;;1999.90;999.90;;;;;;;22.05;56.25;100447.78;15786409;28;20044;-65
2021/07/25 04:05:12;;;;;;;1999.90;999.90;;;;;;;22.08;56.09;100449.78;15769858;28;20048;-65
2021/07/25 04:12:48;;;;;;;1999.90;999.90;;;;;;;21.83;57.54;100441.44;15784593;28;20048;-65
2021/07/25 04:20:20;;;;;;;1999.90;999.90;;;;;;;21.98;57.01;100444.97;15784707;28;20051;-65
2021/07/25 04:27:54;;;;;;;1999.90;999.90;;;;;;;21.95;57.72;100445.81;15750939;28;20036;-65
2021/07/25 04:35:27;;;;;;;1999.90;999.90;;;;;;;;;;15740974;28;20053;-64
2021/07/25 04:43:03;;;;;;;1999.90;999.90;;;;;;;22.17;57.54;100459.47;15739279;28;20090;-65
2021/07/25 04:50:37;;;;;;;1999.90;999.90;;;;;;;22.56;56.84;100469.69;15721398;28;20055;-65
2021/07/25 04:58:14;;;;;;;1999.90;999.90;;;;;;;22.68;56.08;100476.88;15739481;28;20048;-65
2021/07/25 05:05:47;;;;;;;1999.90;999.90;;;;;;;22.50;58.15;100476.22;15721446;28;20048;-65
2021/07/25 05:13:26;;;;;;;1999.90;999.90;;;;;;;22.93;56.45;100497.38;15720853;28;20065;-65
2021/07/25 05:21:04;;;;;;;1999.90;999.90;;;;;;;22.76;56.70;100490.59;15738702;28;20072;-65
2021/07/25 05:28:39;;;;;;;1999.90;999.90;;;;;;;22.97;56.58;100489.59;15788858;28;20052;-65
2021/07/25 05:36:11;;;;;;;1999.90;999.90;;;;;;;23.18;56.63;100493.44;15812379;28;20582;-65
2021/07/25 05:43:45;;;;;;;1999.90;999.90;;;;;;;23.24;56.80;100483.19;15793719;28;20048;-65
2021/07/25 05:51:17;;;;;;;1999.90;999.90;;;;;;;23.16;55.70;100485.31;15794095;28;20051;-65
2021/07/25 05:58:50;;;;;;;1999.90;999.90;;;;;;;23.15;56.76;100480.06;15792869;28;20048;-65
2021/07/25 06:06:22;;;;;;;1999.90;999.90;;;;;;;23.46;56.17;100467.47;15810729;28;20105;-65
2021/07/25 06:13:56;;;;;;;1999.90;999.90;;;;;;;23.50;56.92;100467.41;15810681;28;20040;-65
2021/07/25 06:21:28;;;;;;;1999.90;999.90;;;;;;;23.72;57.11;100465.09;15775850;28;20047;-65
2021/07/25 06:29:02;;;;;;;1999.90;999.90;;;;;;;24.04;56.47;100465.41;15809651;28;20101;-64
2021/07/25 06:36:35;;;;;;;1999.90;999.90;;;;;;;24.06;56.07;100460.06;15808574;28;20052;-65
2021/07/25 06:44:08;;;;;;;1999.90;999.90;;;;;;;24.55;55.77;100468.25;15808515;28;20427;-65
2021/07/25 06:51:40;;;;;;;1999.90;999.90;;;;;;;24.82;54.07;100471.03;15808433;28;20058;-65
2021/07/25 06:59:14;;;;;;;1999.90;999.90;;;;;;;24.79;53.61;100455.56;15807139;28;20501;-65
2021/07/25 07:06:46;;;;;;;1999.90;999.90;;;;;;;25.56;52.35;100452.38;15808062;28;20298;-65
2021/07/25 07:14:20;;;;;;;1999.90;999.90;;;;;;;26.16;50.83;100469.38;15806310;28;20058;-65
2021/07/25 07:21:52;;;;;;;1999.90;999.90;;;;;;;26.64;49.71;100485.72;15786441;28;20039;-64
2021/07/25 07:29:25;;;;;;;1999.90;999.90;;;;;;;26.50;49.75;100488.16;15691776;28;20065;-65
2021/07/25 07:36:57;;;;;;;1999.90;999.90;;;;;;;27.07;49.73;100480.91;15725762;28;20048;-66
2021/07/25 07:44:31;;;;;;;;;;;;;;;28.30;47.00;100500.53;15743434;28;20062;-66
2021/07/25 07:52:04;;;;;;;1999.90;999.90;;;;;;;28.50;46.10;100501.06;15722591;28;20385;-66
2021/07/25 07:59:38;;;;;;;1999.90;999.90;;;;;;;28.70;45.50;100512.28;15722936;28;20110;-65
2021/07/25 08:07:10;;;;;;;1999.90;999.90;;;;;;;28.03;46.35;100510.34;15722610;28;20124;-65
2021/07/25 08:14:43;;;;;;;1999.90;999.90;;;;;;;28.38;45.57;100507.63;15740403;28;20032;-66
2021/07/25 08:22:16;;;;;;;1999.90;999.90;;;;;;;29.97;43.76;100499.38;15744507;28;20074;-65
2021/07/25 08:29:49;;;;;;;1999.90;999.90;;;;;;;30.77;43.78;100493.59;15802417;28;20412;-65
2021/07/25 08:37:22;;;;;;;1999.90;999.90;;;;;;;29.80;44.40;100478.69;15784407;28;20135;-65
2021/07/25 08:44:57;;;;;;;1999.90;999.90;;;;;;;30.09;44.09;100479.16;15803257;28;20043;-65
2021/07/25 08:52:31;;;;;;;1999.90;999.90;;;;;;;30.59;42.27;100487.78;15801867;28;20407;-66
2021/07/25 09:00:08;;;;;;;1999.90;999.90;;;;;;;31.88;39.03;100493.03;15773054;28;20535;-66
2021/07/25 09:07:41;;;;;;;1999.90;999.90;;;;;;;31.52;39.24;100498.88;15797028;28;20066;-65
2021/07/25 09:15:17;;;;;;;1999.90;999.90;;;;;;;31.21;38.38;100508.53;15813916;28;20075;-65
2021/07/25 09:23:06;;;;;;;1999.90;999.90;;;;;;;31.10;39.14;100496.66;15803719;28;20036;-65
2021/07/25 09:30:40;;;;;;;1999.90;999.90;;;;;;;30.71;38.89;100495.50;15750012;28;20409;-65
2021/07/25 09:38:14;;;;;;;1999.90;999.90;;;;;;;31.09;39.08;100502.91;15732380;28;20056;-65
2021/07/25 09:45:59;;;;;;;1999.90;999.90;;;;;;;31.93;37.79;100482.13;15731477;28;20463;-65
2021/07/25 09:53:44;;;;;;;1999.90;999.90;;;;;;;33.00;37.38;100472.53;15749685;28;20045;-65
2021/07/25 10:01:37;;;;;;;1999.90;999.90;;;;;;;33.85;36.14;100472.78;15749597;28;20047;-64
2021/07/25 10:09:10;;;;;;;1999.90;999.90;;;;;;;33.48;35.90;100477.41;15747365;28;20044;-65
2021/07/25 10:16:45;;;;;;;1999.90;999.90;;;;;;;33.01;36.99;100470.44;15747190;28;20059;-64
2021/07/25 10:24:21;;;;;;;1999.90;999.90;;;;;;;34.03;36.43;100465.22;15768577;28;20120;-66
2021/07/25 10:31:56;;;;;;;1999.90;999.90;;;;;;;33.28;36.58;100466.50;15809500;28;20446;-64
2021/07/25 10:39:29;;;;;;;1999.90;999.90;;;;;;;34.30;34.01;100467.75;15790770;28;20040;-65
2021/07/25 10:47:31;;;;;;;1999.90;999.90;;;;;;;33.15;36.45;100477.56;15790308;28;20113;-67
2021/07/25 10:55:05;;;;;;;1999.90;999.90;;;;;;;33.11;37.33;100476.94;15751244;28;20056;-67
2021/07/25 11:02:54;;;;;;;1999.90;999.90;;;;;;;33.84;36.59;100479.88;15790594;28;20036;-65
2021/07/25 11:10:32;;;;;;;1999.90;999.90;;;;;;;33.29;37.64;100482.56;15789043;28;20048;-66
2021/07/25 11:18:06;;;;;;;1999.90;999.90;;;;;;;32.97;39.11;100476.41;15788625;28;20048;-64
2021/07/25 11:25:40;;;;;;;1999.90;999.90;;;;;;;34.95;34.47;100464.72;15772638;28;20477;-64
2021/07/25 11:33:46;;;;;;;1999.90;999.90;;;;;;;37.63;32.45;100473.69;15743255;28;20052;-64
2021/07/25 11:41:22;;;;;;;1999.90;999.90;;;;;;;37.37;31.45;100468.88;15742778;28;20044;-66
2021/07/25 11:49:09;;;;;;;1999.90;999.90;;;;;;;35.37;34.59;100461.22;15707288;28;20485;-65
2021/07/25 11:56:56;;;;;;;1999.90;999.90;;;;;;;33.51;37.81;100459.06;15741307;28;20501;-66
2021/07/25 12:04:33;;;;;;;1999.90;999.90;;;;;;;34.76;34.28;100454.69;15741011;28;20056;-65
2021/07/25 12:12:10;;;;;;;1999.90;999.90;;;;;;;35.86;34.03;100465.13;15706751;28;20048;-67
2021/07/25 12:19:44;;;;;;;1999.90;999.90;;;;;;;35.69;34.60;100459.16;15722230;28;20493;-64
2021/07/25 12:27:32;;;;;;;1999.90;999.90;;;;;;;34.21;34.81;100452.59;15768608;28;20059;-65
2021/07/25 12:35:14;;;;;;;1999.90;999.90;;;;;;;33.77;36.25;100442.69;15784367;28;20119;-68
2021/07/25 12:43:02;;;;;;;1999.90;999.90;;;;;;;34.77;35.28;100444.69;15784847;28;20550;-67
2021/07/25 12:50:53;;;;;;;1999.90;999.90;;;;;;;36.64;32.75;100442.44;15784276;28;20048;-67
2021/07/25 12:58:28;;;;;;;1999.90;999.90;;;;;;;39.21;28.64;100456.13;15767584;28;20131;-67
2021/07/25 13:06:01;;;;;;;1999.90;999.90;;;;;;;40.22;26.59;100445.78;15783900;28;20493;-66
2021/07/25 13:13:35;;;;;;;1999.90;999.90;;;;;;;41.37;25.88;100444.06;15801706;28;20455;-66
2021/07/25 13:21:08;;;;;;;1999.90;999.90;;;;;;;44.12;24.14;100436.22;15802006;28;20044;-66
2021/07/25 13:28:42;;;;;;;1999.90;999.90;;;;;;;36.96;30.47;100427.78;15744103;28;20057;-66
2021/07/25 13:36:14;;;;;;;1999.90;999.90;;;;;;;36.28;32.97;100420.84;15738319;28;20037;-66
2021/07/25 13:43:50;;;;;;;1999.90;999.90;;;;;;;33.31;35.64;100411.38;15739488;28;20041;-65
2021/07/25 13:51:25;;;;;;;1999.90;999.90;;;;;;;34.19;34.57;100408.88;15733030;28;20127;-65
2021/07/25 13:58:58;;;;;;;1999.90;999.90;;;;;;;33.24;35.79;100408.84;15730982;28;20106;-65
2021/07/25 14:06:31;;;;;;;1999.90;999.90;;;;;;;33.80;34.96;100398.28;15748414;28;20044;-66
2021/07/25 14:14:04;;;;;;;1999.90;999.90;;;;;;;33.89;35.11;100396.59;15729825;28;20128;-66
2021/07/25 14:21:37;;;;;;;1999.90;999.90;;;;;;;33.89;35.42;100382.13;15712774;28;20056;-65
2021/07/25 14:29:10;;;;;;;1999.90;999.90;;;;;;;33.57;36.37;100379.78;15809063;28;20062;-65
2021/07/25 14:36:43;;;;;;;1999.90;999.90;;;;;;;34.05;36.94;100382.38;15791811;28;20040;-66
2021/07/25 14:44:17;;;;;;;1999.90;999.90;;;;;;;33.23;36.96;100360.22;15791694;28;20040;-66
2021/07/25 14:51:49;;;;;;;1999.90;999.90;;;;;;;33.24;38.54;100353.13;15808351;28;20512;-66
2021/07/25 14:59:22;;;;;;;1999.90;999.90;;;;;;;33.31;40.08;100352.75;15807328;28;20048;-66
2021/07/25 15:06:55;;;;;;;1999.90;999.90;;;;;;;33.81;39.21;100355.69;15807158;28;20497;-65
2021/07/25 15:14:28;;;;;;;1999.90;999.90;;;;;;;33.69;37.28;100348.13;15806488;28;20036;-66
2021/07/25 15:22:00;;;;;;;1999.90;999.90;;;;;;;33.54;38.08;100342.38;15804217;28;20515;-66
2021/07/25 15:29:34;;;;;;;1999.90;999.90;;;;;;;32.97;38.25;100357.94;15756891;28;20053;-66
2021/07/25 15:37:08;;;;;;;1999.90;999.90;;;;;;;32.10;40.52;100365.81;15742677;28;20040;-66
2021/07/25 15:44:41;;;;;;;1999.90;999.90;;;;;;;31.60;41.95;100345.22;15725393;28;20088;-65
2021/07/25 15:52:13;;;;;;;1999.90;999.90;;;;;;;32.33;40.02;100338.28;15723984;28;20044;-65
2021/07/25 15:59:47;;;;;;;1999.90;999.90;;;;;;;32.36;39.68;100365.34;15741268;28;20049;-66
2021/07/25 16:07:19;;;;;;;1999.90;999.90;;;;;;;31.94;38.93;100363.34;15722773;28;20166;-66
2021/07/25 16:14:53;;;;;;;1999.90;999.90;;;;;;;32.15;39.57;100368.03;15740800;28;20048;-66
2021/07/25 16:22:28;;;;;;;1999.90;999.90;;;;;;;29.39;48.06;100405.97;15729038;28;20040;-64
2021/07/25 16:30:01;;;;;;;1999.90;999.90;;;;;;;27.88;53.38;100412.53;15803071;28;20047;-65
2021/07/25 16:37:33;;;;;;;1999.90;999.90;;;;;;;26.65;59.66;100444.41;15785031;28;20469;-65
2021/07/25 16:45:08;;;;;;;;;;;;;;;26.64;64.14;100442.78;15784746;28;20051;-65
2021/07/25 16:52:40;;;;;;;1999.90;999.90;;;;;;;26.57;64.98;100453.63;15803173;28;19924;-65
2021/07/25 17:00:15;;;;;;;1999.90;999.90;;;;;;;26.64;66.64;100450.56;15784044;28;20121;-65
2021/07/25 17:07:49;;;;;;;1999.90;999.90;;;;;;;26.06;66.18;100481.88;15801846;28;20055;-65
2021/07/25 17:15:23;;;;;;;1999.90;999.90;;;;;;;26.11;66.74;100530.75;15766887;28;20052;-65
2021/07/25 17:22:55;;;;;;;1999.90;999.90;;;;;;;25.71;68.25;100538.59;15810294;28;20040;-65
2021/07/25 17:30:29;;;;;;;1999.90;999.90;;;;;;;24.59;77.07;100500.34;15813327;28;20052;-65
2021/07/25 17:38:01;;;;;;;1999.90;999.90;;;;;;;25.48;73.84;100525.16;15794257;28;20051;-65
2021/07/25 17:45:34;;;;;;;1999.90;999.90;;;;;;;25.25;73.90;100528.09;15812620;28;20420;-65
2021/07/25 17:53:07;;;;;;;1999.90;999.90;;;;;;;24.58;74.41;100502.41;15793214;28;20064;-65
2021/07/25 18:00:40;;;;;;;1999.90;999.90;;;;;;;24.42;74.65;100470.94;15792972;28;20131;-65
2021/07/25 18:08:14;;;;;;;1999.90;999.90;;;;;;;24.36;76.70;100484.06;15810885;28;20051;-65
2021/07/25 18:15:48;;;;;;;1999.90;999.90;;;;;;;24.77;75.68;100501.66;15810177;28;20048;-66
2021/07/25 18:23:20;;;;;;;1999.90;999.90;;;;;;;24.42;76.41;100486.00;15796278;28;20413;-66
2021/07/25 18:30:54;;;;;;;1999.90;999.90;;;;;;;24.06;79.30;100473.50;15711336;28;20052;-66
2021/07/25 18:38:26;;;;;;;1999.90;999.90;;;;;;;24.06;76.66;100445.81;15728016;28;20037;-64
2021/07/25 18:45:59;;;;;;;1999.90;999.90;;;;;;;24.46;74.63;100434.59;15746309;28;20045;-66
2021/07/25 18:53:32;;;;;;;1999.90;999.90;;;;;;;23.76;76.43;100437.34;15745074;28;20361;-65
2021/07/25 19:01:05;;;;;;;1999.90;999.90;;;;;;;24.03;75.44;100441.00;15744890;28;20044;-66
2021/07/25 19:08:37;;;;;;;1999.90;999.90;;;;;;;24.04;74.87;100447.50;15744704;28;20056;-66
2021/07/25 19:16:16;;;;;;;1999.90;999.90;;;;;;;23.87;76.62;100463.66;15725774;28;20044;-65
2021/07/25 19:23:49;;;;;;;1999.90;999.90;;;;;;;23.72;78.34;100465.91;15742544;28;20289;-66
2021/07/25 19:31:22;;;;;;;1999.90;999.90;;;;;;;23.74;77.09;100491.91;15787977;28;20100;-65
2021/07/25 19:38:55;;;;;;;1999.90;999.90;;;;;;;23.73;76.45;100509.44;15787054;28;20153;-66
2021/07/25 19:46:29;;;;;;;1999.90;999.90;;;;;;;23.89;75.88;100493.31;15786987;28;20055;-66
2021/07/25 19:54:01;;;;;;;1999.90;999.90;;;;;;;23.75;76.19;100512.66;15786617;28;20131;-66
2021/07/25 20:01:35;;;;;;;1999.90;999.90;;;;;;;23.82;77.26;100523.94;15786626;28;20393;-66
2021/07/25 20:09:08;;;;;;;1999.90;999.90;;;;;;;23.70;77.64;100528.19;15803982;28;20121;-66
2021/07/25 20:16:41;;;;;;;1999.90;999.90;;;;;;;23.68;78.80;100542.06;15785776;28;20040;-66
2021/07/25 20:24:20;;;;;;;1999.90;999.90;;;;;;;23.97;77.65;100533.94;15748069;28;20044;-66
2021/07/25 20:31:54;;;;;;;1999.90;999.90;;;;;;;23.80;78.05;100534.97;15742139;28;20044;-66
2021/07/25 20:39:28;;;;;;;1999.90;999.90;;;;;;;23.78;78.09;100543.16;15723751;28;20047;-66
2021/07/25 20:47:02;;;;;;;1999.90;999.90;;;;;;;23.71;78.07;100549.75;15740374;28;20059;-66
2021/07/25 20:54:36;;;;;;;1999.90;999.90;;;;;;;23.90;77.07;100551.91;15725500;28;20135;-66
2021/07/25 21:02:14;;;;;;;1999.90;999.90;;;;;;;24.24;76.04;100555.91;15735406;28;20412;-65
2021/07/25 21:09:47;;;;;;;1999.90;999.90;;;;;;;23.98;77.15;100546.94;15734717;28;20134;-66
2021/07/25 21:17:21;;;;;;;1999.90;999.90;;;;;;;24.04;75.37;100542.34;15751186;28;20383;-66
2021/07/25 21:24:54;;;;;;;1999.90;999.90;;;;;;;23.67;76.90;100531.91;15759728;28;20040;-66
2021/07/25 21:32:28;;;;;;;;;;;;;;;23.80;76.99;100520.72;15744192;28;20417;-66
2021/07/25 21:40:00;;;;;;;1999.90;999.90;;;;;;;23.47;78.83;100508.94;15714318;28;19926;-66
2021/07/25 21:47:34;;;;;;;1999.90;999.90;;;;;;;23.59;78.03;100510.44;15731383;28;20041;-66
2021/07/25 21:55:07;;;;;;;1999.90;999.90;;;;;;;23.51;78.41;100504.00;15749279;28;20041;-67
2021/07/25 22:02:46;;;;;;;1999.90;999.90;;;;;;;23.61;77.53;100510.81;15714291;28;20048;-66
2021/07/25 22:10:18;;;;;;;1999.90;999.90;;;;;;;23.43;78.25;100530.13;15747067;28;20045;-66
2021/07/25 22:17:53;;;;;;;1999.90;999.90;;;;;;;23.24;79.19;100534.41;15747259;28;20037;-66
2021/07/25 22:25:26;;;;;;;1999.90;999.90;;;;;;;22.73;81.13;100541.84;15760457;28;20527;-66
2021/07/25 22:32:59;;;;;;;1999.90;999.90;;;;;;;23.18;78.65;100533.28;15791098;28;20166;-66
2021/07/25 22:40:31;;;;;;;1999.90;999.90;;;;;;;23.18;78.30;100536.13;15810405;28;20047;-66
2021/07/25 22:48:09;;;;;;;1999.90;999.90;;;;;;;23.33;77.36;100540.41;15810042;28;20048;-66
2021/07/25 22:55:41;;;;;;;1999.90;999.90;;;;;;;23.12;77.47;100534.97;15810055;28;20040;-65
2021/07/25 23:03:17;;;;;;;1999.90;999.90;;;;;;;23.08;77.87;100537.84;15807283;28;20093;-66
2021/07/25 23:10:49;;;;;;;1999.90;999.90;;;;;;;22.87;79.34;100538.06;15801454;28;20044;-65
2021/07/25 23:18:22;;;;;;;1999.90;999.90;;;;;;;22.55;81.53;100532.66;15789933;28;20485;-65
2021/07/25 23:25:55;;;;;;;1999.90;999.90;;;;;;;22.42;82.28;100538.06;15779956;28;20836;-66
2021/07/25 23:33:28;;;;;;;1999.90;999.90;;;;;;;22.23;83.73;100547.94;15727298;28;20102;-65
2021/07/25 23:41:08;;;;;;;1999.90;999.90;;;;;;;22.49;82.31;100560.72;15787714;28;20040;-65
2021/07/25 23:48:41;;;;;;;1999.90;999.90;;;;;;;22.77;80.13;100566.16;15805649;28;20040;-65
2021/07/25 23:56:14;;;;;;;1999.90;999.90;;;;;;;22.19;82.93;100564.19;15754976;28;20041;-65
